sensor_id;sensor_type;location;lat;lon;timestamp;temperature;humidity
490;DHT22;231;48.120;11.576;2023-04-15T04:15:49;5.40;99.90
490;DHT22;231;48.120;11.576;2023-04-15T04:19:43;5.40;99.90
490;DHT22;231;48.120;11.576;2023-04-15T04:22:55;5.40;99.90
490;DHT22;231;48.120;11.576;2023-04-15T04:25:59;5.40;99.90
490;DHT22;231;48.120;11.576;2023-04-15T04:49:17;5.40;99.90
490;DHT22;231;48.120;11.576;2023-04-15T04:52:17;5.50;99.90
490;DHT22;231;48.120;11.576;2023-04-15T04:55:33;5.50;99.90
490;DHT22;231;48.120;11.576;2023-04-15T04:58:44;5.50;99.90
490;DHT22;231;48.120;11.576;2023-04-15T05:02:10;5.60;99.90
490;DHT22;231;48.120;11.576;2023-04-15T05:05:04;5.60;99.90
490;DHT22;231;48.120;11.576;2023-04-15T05:07:45;5.60;99.90
490;DHT22;231;48.120;11.576;2023-04-15T05:10:14;5.70;99.90
490;DHT22;231;48.120;11.576;2023-04-15T05:12:54;5.70;99.90
490;DHT22;231;48.120;11.576;2023-04-15T05:15:22;5.70;99.90
490;DHT22;231;48.120;11.576;2023-04-15T05:17:51;5.80;99.90
490;DHT22;231;48.120;11.576;2023-04-15T05:20:19;5.70;99.90
490;DHT22;231;48.120;11.576;2023-04-15T05:22:46;5.80;99.90
490;DHT22;231;48.120;11.576;2023-04-15T05:25:13;5.80;99.90
490;DHT22;231;48.120;11.576;2023-04-15T05:27:41;5.80;99.90
490;DHT22;231;48.120;11.576;2023-04-15T05:30:09;5.80;99.90
490;DHT22;231;48.120;11.576;2023-04-15T05:32:37;5.80;99.90
490;DHT22;231;48.120;11.576;2023-04-15T05:35:06;5.90;99.90
490;DHT22;231;48.120;11.576;2023-04-15T05:37:43;5.90;99.90
490;DHT22;231;48.120;11.576;2023-04-15T05:42:46;6.00;99.90
490;DHT22;231;48.120;11.576;2023-04-15T05:44:03;5.90;99.90
490;DHT22;231;48.120;11.576;2023-04-15T05:47:12;6.00;99.90
490;DHT22;231;48.120;11.576;2023-04-15T06:45:16;7.20;99.90
490;DHT22;231;48.120;11.576;2023-04-15T06:47:44;7.30;99.90
490;DHT22;231;48.120;11.576;2023-04-15T06:50:19;7.50;99.90
490;DHT22;231;48.120;11.576;2023-04-15T06:52:50;7.50;99.90
490;DHT22;231;48.120;11.576;2023-04-15T06:55:23;7.70;99.90
490;DHT22;231;48.120;11.576;2023-04-15T06:57:51;7.80;99.90
490;DHT22;231;48.120;11.576;2023-04-15T07:00:35;7.90;99.90
490;DHT22;231;48.120;11.576;2023-04-15T07:03:31;8.00;99.90
490;DHT22;231;48.120;11.576;2023-04-15T07:06:00;8.20;99.90
490;DHT22;231;48.120;11.576;2023-04-15T07:08:49;8.30;99.90
490;DHT22;231;48.120;11.576;2023-04-15T07:11:16;8.40;99.90
490;DHT22;231;48.120;11.576;2023-04-15T07:14:16;8.60;99.90
490;DHT22;231;48.120;11.576;2023-04-15T07:16:46;8.80;99.90
490;DHT22;231;48.120;11.576;2023-04-15T07:19:13;9.10;99.90
490;DHT22;231;48.120;11.576;2023-04-15T07:21:45;9.60;99.90
490;DHT22;231;48.120;11.576;2023-04-15T07:24:32;10.10;99.90
490;DHT22;231;48.120;11.576;2023-04-15T07:27:29;10.70;99.90
490;DHT22;231;48.120;11.576;2023-04-15T07:30:15;11.20;99.90
490;DHT22;231;48.120;11.576;2023-04-15T07:43:38;11.60;99.90
490;DHT22;231;48.120;11.576;2023-04-15T07:46:35;14.50;99.90
490;DHT22;231;48.120;11.576;2023-04-15T07:49:13;14.60;99.90
490;DHT22;231;48.120;11.576;2023-04-15T07:51:50;14.50;99.90
490;DHT22;231;48.120;11.576;2023-04-15T08:19:05;21.60;99.90
490;DHT22;231;48.120;11.576;2023-04-15T08:21:49;21.50;93.50
490;DHT22;231;48.120;11.576;2023-04-15T08:24:17;21.30;90.20
490;DHT22;231;48.120;11.576;2023-04-15T08:26:44;21.20;73.50
490;DHT22;231;48.120;11.576;2023-04-15T08:29:12;21.30;92.10
490;DHT22;231;48.120;11.576;2023-04-15T08:31:41;21.30;86.40
490;DHT22;231;48.120;11.576;2023-04-15T08:34:12;21.10;91.30
490;DHT22;231;48.120;11.576;2023-04-15T08:36:47;21.00;88.50
490;DHT22;231;48.120;11.576;2023-04-15T08:39:20;20.70;84.90
490;DHT22;231;48.120;11.576;2023-04-15T08:41:55;20.40;84.80
490;DHT22;231;48.120;11.576;2023-04-15T08:44:27;19.80;59.50
490;DHT22;231;48.120;11.576;2023-04-15T08:46:55;19.10;64.00
490;DHT22;231;48.120;11.576;2023-04-15T08:49:26;18.40;61.20
490;DHT22;231;48.120;11.576;2023-04-15T08:51:54;17.70;58.40
490;DHT22;231;48.120;11.576;2023-04-15T08:54:22;17.20;67.10
490;DHT22;231;48.120;11.576;2023-04-15T08:56:49;16.80;69.50
490;DHT22;231;48.120;11.576;2023-04-15T08:59:16;16.50;71.30
490;DHT22;231;48.120;11.576;2023-04-15T09:01:44;16.30;51.70
490;DHT22;231;48.120;11.576;2023-04-15T09:04:11;16.30;26.40
490;DHT22;231;48.120;11.576;2023-04-15T09:06:39;16.20;14.90
490;DHT22;231;48.120;11.576;2023-04-15T09:09:07;16.20;15.10
490;DHT22;231;48.120;11.576;2023-04-15T09:11:34;16.20;12.40
490;DHT22;231;48.120;11.576;2023-04-15T09:14:01;16.20;10.20
490;DHT22;231;48.120;11.576;2023-04-15T09:16:28;16.20;8.90
490;DHT22;231;48.120;11.576;2023-04-15T09:18:55;16.00;7.10
490;DHT22;231;48.120;11.576;2023-04-15T09:21:22;15.90;6.10
490;DHT22;231;48.120;11.576;2023-04-15T09:23:55;16.00;7.30
490;DHT22;231;48.120;11.576;2023-04-15T09:26:30;16.30;5.70
490;DHT22;231;48.120;11.576;2023-04-15T09:29:03;16.50;5.00
490;DHT22;231;48.120;11.576;2023-04-15T09:31:31;16.80;4.00
490;DHT22;231;48.120;11.576;2023-04-15T09:33:58;17.00;3.10
490;DHT22;231;48.120;11.576;2023-04-15T09:36:25;17.10;2.70
490;DHT22;231;48.120;11.576;2023-04-15T09:38:56;17.20;2.10
490;DHT22;231;48.120;11.576;2023-04-15T09:41:23;17.30;1.70
490;DHT22;231;48.120;11.576;2023-04-15T09:43:51;17.30;1.70
490;DHT22;231;48.120;11.576;2023-04-15T09:46:18;17.30;1.60
490;DHT22;231;48.120;11.576;2023-04-15T09:48:45;17.40;1.10
490;DHT22;231;48.120;11.576;2023-04-15T09:51:12;17.40;1.00
490;DHT22;231;48.120;11.576;2023-04-15T09:53:40;17.70;1.90
490;DHT22;231;48.120;11.576;2023-04-15T09:56:08;18.00;1.00
490;DHT22;231;48.120;11.576;2023-04-15T09:58:36;17.90;1.00
490;DHT22;231;48.120;11.576;2023-04-15T10:01:04;17.80;1.00
490;DHT22;231;48.120;11.576;2023-04-15T10:03:34;17.70;1.00
490;DHT22;231;48.120;11.576;2023-04-15T10:06:02;17.50;1.00
490;DHT22;231;48.120;11.576;2023-04-15T10:08:32;17.30;1.00
490;DHT22;231;48.120;11.576;2023-04-15T10:11:00;16.90;1.00
490;DHT22;231;48.120;11.576;2023-04-15T10:13:31;16.50;1.00
490;DHT22;231;48.120;11.576;2023-04-15T10:16:04;16.20;1.30
490;DHT22;231;48.120;11.576;2023-04-15T10:18:34;16.00;1.20
490;DHT22;231;48.120;11.576;2023-04-15T10:21:03;15.70;1.40
490;DHT22;231;48.120;11.576;2023-04-15T10:23:31;15.50;1.80
490;DHT22;231;48.120;11.576;2023-04-15T10:25:59;15.40;2.00
490;DHT22;231;48.120;11.576;2023-04-15T10:28:27;15.40;2.50
490;DHT22;231;48.120;11.576;2023-04-15T10:30:56;15.60;2.40
490;DHT22;231;48.120;11.576;2023-04-15T10:33:26;15.80;2.20
490;DHT22;231;48.120;11.576;2023-04-15T10:35:54;15.90;1.80
490;DHT22;231;48.120;11.576;2023-04-15T10:38:35;16.10;2.00
490;DHT22;231;48.120;11.576;2023-04-15T10:41:17;16.20;1.50
490;DHT22;231;48.120;11.576;2023-04-15T10:44:03;16.40;1.60
490;DHT22;231;48.120;11.576;2023-04-15T10:46:45;16.60;1.00
490;DHT22;231;48.120;11.576;2023-04-15T10:49:14;16.70;1.00
490;DHT22;231;48.120;11.576;2023-04-15T10:51:43;16.70;1.00
490;DHT22;231;48.120;11.576;2023-04-15T10:54:13;16.80;1.00
490;DHT22;231;48.120;11.576;2023-04-15T10:56:41;16.90;1.00
490;DHT22;231;48.120;11.576;2023-04-15T10:59:09;17.00;1.00
490;DHT22;231;48.120;11.576;2023-04-15T11:01:55;17.00;1.00
490;DHT22;231;48.120;11.576;2023-04-15T11:04:57;17.00;1.00
490;DHT22;231;48.120;11.576;2023-04-15T11:07:35;17.20;1.00
490;DHT22;231;48.120;11.576;2023-04-15T11:10:03;17.20;1.00
490;DHT22;231;48.120;11.576;2023-04-15T11:12:35;17.40;1.00
490;DHT22;231;48.120;11.576;2023-04-15T11:15:26;17.50;1.00
490;DHT22;231;48.120;11.576;2023-04-15T11:17:55;17.50;1.00
490;DHT22;231;48.120;11.576;2023-04-15T11:20:22;17.50;1.00
490;DHT22;231;48.120;11.576;2023-04-15T11:22:55;17.40;1.00
490;DHT22;231;48.120;11.576;2023-04-15T11:25:30;17.30;1.00
490;DHT22;231;48.120;11.576;2023-04-15T11:30:56;16.80;1.00
490;DHT22;231;48.120;11.576;2023-04-15T11:33:29;16.50;1.00
490;DHT22;231;48.120;11.576;2023-04-15T11:35:56;16.00;1.00
490;DHT22;231;48.120;11.576;2023-04-15T11:38:23;15.50;3.20
490;DHT22;231;48.120;11.576;2023-04-15T11:40:50;14.80;4.80
490;DHT22;231;48.120;11.576;2023-04-15T11:43:19;14.20;6.90
490;DHT22;231;48.120;11.576;2023-04-15T11:46:29;13.70;9.90
490;DHT22;231;48.120;11.576;2023-04-15T11:48:58;13.20;12.20
490;DHT22;231;48.120;11.576;2023-04-15T11:51:32;12.90;15.00
490;DHT22;231;48.120;11.576;2023-04-15T11:54:04;12.70;15.30
490;DHT22;231;48.120;11.576;2023-04-15T11:56:31;12.60;14.90
490;DHT22;231;48.120;11.576;2023-04-15T11:58:58;12.40;13.60
490;DHT22;231;48.120;11.576;2023-04-15T12:01:32;12.20;13.90
490;DHT22;231;48.120;11.576;2023-04-15T12:04:12;12.00;14.90
490;DHT22;231;48.120;11.576;2023-04-15T12:06:43;11.90;15.40
490;DHT22;231;48.120;11.576;2023-04-15T12:09:11;11.80;17.60
490;DHT22;231;48.120;11.576;2023-04-15T12:11:40;11.80;18.80
490;DHT22;231;48.120;11.576;2023-04-15T12:14:10;11.80;18.10
490;DHT22;231;48.120;11.576;2023-04-15T12:16:39;11.80;17.70
490;DHT22;231;48.120;11.576;2023-04-15T12:19:09;11.90;16.40
490;DHT22;231;48.120;11.576;2023-04-15T12:21:38;11.90;14.30
490;DHT22;231;48.120;11.576;2023-04-15T12:24:07;11.90;13.10
490;DHT22;231;48.120;11.576;2023-04-15T12:26:36;11.90;12.70
490;DHT22;231;48.120;11.576;2023-04-15T12:29:05;12.00;11.30
490;DHT22;231;48.120;11.576;2023-04-15T12:31:33;12.10;10.60
490;DHT22;231;48.120;11.576;2023-04-15T12:34:00;12.10;9.60
490;DHT22;231;48.120;11.576;2023-04-15T12:36:30;12.20;8.80
490;DHT22;231;48.120;11.576;2023-04-15T12:39:01;12.30;8.60
490;DHT22;231;48.120;11.576;2023-04-15T12:41:28;12.60;7.90
490;DHT22;231;48.120;11.576;2023-04-15T12:43:55;12.80;7.30
490;DHT22;231;48.120;11.576;2023-04-15T12:46:22;13.00;6.70
490;DHT22;231;48.120;11.576;2023-04-15T12:48:49;13.30;6.40
490;DHT22;231;48.120;11.576;2023-04-15T12:51:16;13.40;5.40
490;DHT22;231;48.120;11.576;2023-04-15T12:53:44;13.60;4.30
490;DHT22;231;48.120;11.576;2023-04-15T12:56:12;13.80;3.10
490;DHT22;231;48.120;11.576;2023-04-15T12:58:39;13.80;2.80
490;DHT22;231;48.120;11.576;2023-04-15T13:01:05;13.80;2.40
490;DHT22;231;48.120;11.576;2023-04-15T13:03:32;13.70;2.90
490;DHT22;231;48.120;11.576;2023-04-15T13:05:59;13.70;2.90
490;DHT22;231;48.120;11.576;2023-04-15T13:08:29;13.60;3.00
490;DHT22;231;48.120;11.576;2023-04-15T13:10:57;13.50;2.00
490;DHT22;231;48.120;11.576;2023-04-15T13:13:24;13.20;1.40
490;DHT22;231;48.120;11.576;2023-04-15T13:15:51;13.10;1.80
490;DHT22;231;48.120;11.576;2023-04-15T13:18:18;12.90;2.70
490;DHT22;231;48.120;11.576;2023-04-15T13:20:45;12.70;3.60
490;DHT22;231;48.120;11.576;2023-04-15T13:23:12;12.60;3.00
490;DHT22;231;48.120;11.576;2023-04-15T13:25:39;12.40;2.60
490;DHT22;231;48.120;11.576;2023-04-15T13:28:07;12.30;2.70
490;DHT22;231;48.120;11.576;2023-04-15T13:30:35;12.20;3.20
490;DHT22;231;48.120;11.576;2023-04-15T13:33:03;12.20;4.30
490;DHT22;231;48.120;11.576;2023-04-15T13:35:31;12.20;4.70
490;DHT22;231;48.120;11.576;2023-04-15T13:37:58;12.20;6.10
490;DHT22;231;48.120;11.576;2023-04-15T13:40:25;12.20;7.60
490;DHT22;231;48.120;11.576;2023-04-15T13:42:52;12.20;8.50
490;DHT22;231;48.120;11.576;2023-04-15T13:45:20;12.20;9.40
490;DHT22;231;48.120;11.576;2023-04-15T13:47:48;12.20;8.90
490;DHT22;231;48.120;11.576;2023-04-15T13:50:14;12.20;9.40
490;DHT22;231;48.120;11.576;2023-04-15T13:52:41;12.00;9.30
490;DHT22;231;48.120;11.576;2023-04-15T13:55:09;11.80;11.00
490;DHT22;231;48.120;11.576;2023-04-15T13:57:36;11.60;13.10
490;DHT22;231;48.120;11.576;2023-04-15T14:00:03;11.20;14.20
490;DHT22;231;48.120;11.576;2023-04-15T14:02:32;11.00;17.00
490;DHT22;231;48.120;11.576;2023-04-15T14:04:58;10.80;17.70
490;DHT22;231;48.120;11.576;2023-04-15T14:07:26;10.70;19.00
490;DHT22;231;48.120;11.576;2023-04-15T14:09:54;10.60;18.20
490;DHT22;231;48.120;11.576;2023-04-15T14:12:21;10.60;19.00
490;DHT22;231;48.120;11.576;2023-04-15T14:14:48;10.60;20.50
490;DHT22;231;48.120;11.576;2023-04-15T14:17:15;10.70;20.60
490;DHT22;231;48.120;11.576;2023-04-15T14:19:43;10.80;19.80
490;DHT22;231;48.120;11.576;2023-04-15T14:22:10;10.90;17.80
490;DHT22;231;48.120;11.576;2023-04-15T14:24:37;11.00;16.40
490;DHT22;231;48.120;11.576;2023-04-15T14:27:04;11.20;16.50
490;DHT22;231;48.120;11.576;2023-04-15T14:29:30;11.30;14.50
490;DHT22;231;48.120;11.576;2023-04-15T14:31:57;11.40;12.00
490;DHT22;231;48.120;11.576;2023-04-15T14:34:24;11.50;9.30
490;DHT22;231;48.120;11.576;2023-04-15T14:36:52;11.50;8.90
490;DHT22;231;48.120;11.576;2023-04-15T14:39:19;11.60;7.90
490;DHT22;231;48.120;11.576;2023-04-15T14:41:46;11.60;6.90
490;DHT22;231;48.120;11.576;2023-04-15T14:44:13;11.70;7.50
490;DHT22;231;48.120;11.576;2023-04-15T14:46:41;11.80;7.00
490;DHT22;231;48.120;11.576;2023-04-15T14:49:08;11.80;7.30
490;DHT22;231;48.120;11.576;2023-04-15T14:51:35;11.80;6.80
490;DHT22;231;48.120;11.576;2023-04-15T14:54:03;11.80;7.20
490;DHT22;231;48.120;11.576;2023-04-15T14:56:30;11.80;6.90
490;DHT22;231;48.120;11.576;2023-04-15T14:58:57;11.90;6.40
490;DHT22;231;48.120;11.576;2023-04-15T15:01:24;12.00;7.00
490;DHT22;231;48.120;11.576;2023-04-15T15:03:51;12.00;6.90
490;DHT22;231;48.120;11.576;2023-04-15T15:06:19;12.20;7.00
490;DHT22;231;48.120;11.576;2023-04-15T15:08:47;12.30;6.70
490;DHT22;231;48.120;11.576;2023-04-15T15:11:15;12.40;7.20
490;DHT22;231;48.120;11.576;2023-04-15T15:13:42;12.30;8.50
490;DHT22;231;48.120;11.576;2023-04-15T15:16:09;12.00;10.50
490;DHT22;231;48.120;11.576;2023-04-15T15:18:36;11.70;13.20
490;DHT22;231;48.120;11.576;2023-04-15T15:21:03;11.50;17.00
490;DHT22;231;48.120;11.576;2023-04-15T15:23:30;11.10;17.80
490;DHT22;231;48.120;11.576;2023-04-15T15:25:57;10.80;19.40
490;DHT22;231;48.120;11.576;2023-04-15T15:28:26;10.40;21.40
490;DHT22;231;48.120;11.576;2023-04-15T15:30:53;10.10;24.10
490;DHT22;231;48.120;11.576;2023-04-15T15:33:20;9.90;27.10
490;DHT22;231;48.120;11.576;2023-04-15T15:35:47;9.70;29.00
490;DHT22;231;48.120;11.576;2023-04-15T15:38:16;9.50;30.50
490;DHT22;231;48.120;11.576;2023-04-15T15:40:47;9.40;33.10
490;DHT22;231;48.120;11.576;2023-04-15T15:43:29;9.20;35.90
490;DHT22;231;48.120;11.576;2023-04-15T15:45:56;9.10;39.20
490;DHT22;231;48.120;11.576;2023-04-15T15:48:33;9.00;42.50
490;DHT22;231;48.120;11.576;2023-04-15T15:51:01;8.80;45.50
490;DHT22;231;48.120;11.576;2023-04-15T22:46:06;6.10;99.90
490;DHT22;231;48.120;11.576;2023-04-15T22:48:33;6.00;99.90
490;DHT22;231;48.120;11.576;2023-04-15T22:51:01;6.00;99.90
490;DHT22;231;48.120;11.576;2023-04-15T22:53:28;6.00;99.90
490;DHT22;231;48.120;11.576;2023-04-15T22:55:55;6.00;99.90
490;DHT22;231;48.120;11.576;2023-04-15T22:58:22;6.00;99.90
490;DHT22;231;48.120;11.576;2023-04-15T23:00:49;5.90;99.90
490;DHT22;231;48.120;11.576;2023-04-15T23:03:17;5.90;99.90
490;DHT22;231;48.120;11.576;2023-04-15T23:05:44;5.90;99.90
490;DHT22;231;48.120;11.576;2023-04-15T23:08:11;5.90;99.90
490;DHT22;231;48.120;11.576;2023-04-15T23:10:38;5.90;99.90
490;DHT22;231;48.120;11.576;2023-04-15T23:13:05;5.90;99.90
490;DHT22;231;48.120;11.576;2023-04-15T23:15:32;5.80;99.90
490;DHT22;231;48.120;11.576;2023-04-15T23:17:59;5.80;99.90
490;DHT22;231;48.120;11.576;2023-04-15T23:20:36;5.90;99.90
490;DHT22;231;48.120;11.576;2023-04-15T23:23:04;5.90;99.90
490;DHT22;231;48.120;11.576;2023-04-15T23:25:30;5.80;99.90
490;DHT22;231;48.120;11.576;2023-04-15T23:27:57;5.80;99.90
490;DHT22;231;48.120;11.576;2023-04-15T23:30:24;5.80;99.90
490;DHT22;231;48.120;11.576;2023-04-15T23:32:51;5.80;99.90
490;DHT22;231;48.120;11.576;2023-04-15T23:35:24;5.80;99.90
490;DHT22;231;48.120;11.576;2023-04-15T23:37:55;5.80;99.90
490;DHT22;231;48.120;11.576;2023-04-15T23:40:23;5.70;99.90
490;DHT22;231;48.120;11.576;2023-04-15T23:42:51;5.70;99.90
490;DHT22;231;48.120;11.576;2023-04-15T23:45:19;5.70;99.90
490;DHT22;231;48.120;11.576;2023-04-15T23:47:46;5.70;99.90
490;DHT22;231;48.120;11.576;2023-04-15T23:50:13;5.70;99.90
490;DHT22;231;48.120;11.576;2023-04-15T23:52:41;5.70;99.90
490;DHT22;231;48.120;11.576;2023-04-15T23:55:12;5.70;99.90
490;DHT22;231;48.120;11.576;2023-04-15T23:57:42;5.70;99.90
